Terminal Aerodrome Forecast
Issued by NWS

Home | Current Version | Previous Version | Text Only | Print | Product List | Glossary Off
Versions: 1 2 3 4 5 6 7 8 9 10 11 12 13 14

000
FTUS43 KGRB 030500
TAFAUW
TAF
KAUW 030520Z 0306/0406 21006KT P6SM SCT250
     FM031500 20014G22KT P6SM SCT045
     FM032200 22015G24KT P6SM SCT050 BKN090
      TEMPO 0323/0401 33025G35KT 3SM TSRA BKN030CB
     FM040100 28004KT P6SM BKN100=

USA.gov is the U.S. government's official web portal to all federal, state and local government web resources and services.